createdAt,value
2023-04-24T00:01:10.077Z,15.40
2023-04-24T00:03:38.487Z,15.30
2023-04-24T00:06:06.343Z,15.40
2023-04-24T00:08:33.394Z,15.30
2023-04-24T00:11:00.245Z,15.40
2023-04-24T00:13:29.337Z,15.30
2023-04-24T00:15:56.998Z,15.30
2023-04-24T00:18:23.848Z,15.30
2023-04-24T00:20:50.683Z,15.30
2023-04-24T00:23:17.410Z,15.30
2023-04-24T00:25:44.361Z,15.30
2023-04-24T00:28:11.105Z,15.20
2023-04-24T00:30:37.892Z,15.50
2023-04-24T00:33:04.855Z,15.20
2023-04-24T00:35:31.727Z,15.30
2023-04-24T00:37:58.458Z,15.20
2023-04-24T00:40:25.306Z,15.20
2023-04-24T00:42:52.106Z,15.10
2023-04-24T00:45:19.213Z,15.20
2023-04-24T00:47:47.747Z,15.20
2023-04-24T00:50:16.481Z,15.20
2023-04-24T00:52:43.304Z,15.20
2023-04-24T00:55:10.681Z,15.20
2023-04-24T00:57:38.628Z,15.20
2023-04-24T01:00:06.873Z,15.20
2023-04-24T01:02:35.611Z,15.20
2023-04-24T01:05:03.001Z,15.30
2023-04-24T01:07:30.138Z,15.10
2023-04-24T01:09:57.301Z,15.20
2023-04-24T01:12:24.292Z,15.20
2023-04-24T01:14:51.052Z,15.10
2023-04-24T01:17:17.839Z,15.10
2023-04-24T01:19:47.994Z,15.00
2023-04-24T01:22:16.021Z,15.10
2023-04-24T01:24:43.928Z,15.00
2023-04-24T01:27:11.582Z,15.10
2023-04-24T01:29:38.388Z,15.00
2023-04-24T01:32:06.193Z,15.10
2023-04-24T01:34:33.407Z,15.10
2023-04-24T01:37:00.510Z,15.10
2023-04-24T01:39:29.436Z,15.10
2023-04-24T01:41:57.021Z,15.20
2023-04-24T01:44:24.763Z,15.10
2023-04-24T01:46:51.777Z,15.20
2023-04-24T01:49:18.839Z,15.10
2023-04-24T01:51:46.001Z,15.20
2023-04-24T01:54:13.536Z,15.10
2023-04-24T01:56:44.412Z,15.10
2023-04-24T01:59:14.333Z,15.10
2023-04-24T02:01:41.149Z,15.10
2023-04-24T02:04:09.277Z,15.10
2023-04-24T02:06:36.402Z,15.30
2023-04-24T02:09:04.362Z,15.20
2023-04-24T02:11:31.272Z,15.10
2023-04-24T02:13:58.046Z,15.10
2023-04-24T02:16:24.868Z,15.00
2023-04-24T02:18:51.696Z,14.90
2023-04-24T02:21:18.525Z,15.10
2023-04-24T02:23:45.389Z,15.10
2023-04-24T02:26:12.366Z,15.10
2023-04-24T02:28:39.149Z,15.10
2023-04-24T02:31:07.213Z,15.10
2023-04-24T02:33:34.131Z,15.20
2023-04-24T02:36:01.292Z,15.10
2023-04-24T02:38:28.061Z,15.10
2023-04-24T02:40:54.941Z,15.00
2023-04-24T02:43:21.819Z,15.10
2023-04-24T02:45:48.627Z,15.10
2023-04-24T02:48:15.781Z,14.90
2023-04-24T02:50:42.551Z,15.00
2023-04-24T02:53:09.510Z,15.10
2023-04-24T02:55:36.744Z,15.10
2023-04-24T02:58:03.618Z,15.00
2023-04-24T03:00:30.945Z,15.00
2023-04-24T03:02:57.970Z,14.90
2023-04-24T03:05:25.051Z,14.80
2023-04-24T03:07:53.649Z,14.90
2023-04-24T03:10:20.787Z,14.80
2023-04-24T03:12:47.572Z,14.90
2023-04-24T03:15:14.615Z,14.70
2023-04-24T03:17:41.512Z,14.70
2023-04-24T03:20:12.067Z,14.60
2023-04-24T03:22:38.890Z,14.80
2023-04-24T03:25:06.264Z,14.90
2023-04-24T03:27:33.101Z,14.90
2023-04-24T03:29:59.829Z,14.90
2023-04-24T03:32:26.596Z,14.90
2023-04-24T03:34:54.307Z,15.00
2023-04-24T03:37:21.134Z,15.00
2023-04-24T03:39:47.985Z,15.00
2023-04-24T03:42:14.762Z,14.90
2023-04-24T03:44:41.602Z,15.00
2023-04-24T03:47:08.554Z,15.00
2023-04-24T03:49:35.463Z,15.00
2023-04-24T03:52:02.485Z,15.10
2023-04-24T03:54:29.225Z,15.10
2023-04-24T03:56:56.171Z,15.10
2023-04-24T03:59:22.965Z,15.80
2023-04-24T04:01:49.790Z,14.90
2023-04-24T04:04:16.749Z,14.90
2023-04-24T04:06:45.153Z,14.90
2023-04-24T04:09:12.117Z,14.90
2023-04-24T04:11:39.049Z,14.90
2023-04-24T04:14:06.359Z,14.90
2023-04-24T04:16:33.782Z,14.90
2023-04-24T04:19:00.756Z,14.90
2023-04-24T04:21:28.167Z,15.00
2023-04-24T04:23:55.127Z,15.10
2023-04-24T04:26:22.405Z,15.00
2023-04-24T04:28:50.349Z,15.00
2023-04-24T04:31:17.339Z,15.00
2023-04-24T04:33:44.216Z,15.00
2023-04-24T04:36:11.340Z,15.00
2023-04-24T04:38:38.216Z,15.00
2023-04-24T04:41:05.416Z,15.00
2023-04-24T04:43:33.643Z,15.00
2023-04-24T04:46:01.750Z,14.90
2023-04-24T04:48:29.666Z,14.90
2023-04-24T04:50:56.477Z,14.80
2023-04-24T04:53:23.192Z,14.80
2023-04-24T04:55:50.167Z,14.90
2023-04-24T04:58:16.975Z,14.90
2023-04-24T05:00:43.829Z,14.80
2023-04-24T05:03:20.852Z,14.80
2023-04-24T05:05:48.738Z,14.80
2023-04-24T05:10:45.303Z,15.00
2023-04-24T05:13:14.090Z,15.00
2023-04-24T05:15:41.088Z,15.00
2023-04-24T05:18:08.063Z,15.00
2023-04-24T05:20:34.803Z,14.90
2023-04-24T05:23:01.634Z,14.80
2023-04-24T05:25:28.627Z,14.60
2023-04-24T05:27:55.618Z,14.50
2023-04-24T05:30:22.445Z,14.50
2023-04-24T05:32:49.226Z,14.30
2023-04-24T05:35:16.057Z,14.20
2023-04-24T05:37:42.879Z,14.10
2023-04-24T05:40:10.390Z,14.00
2023-04-24T05:42:37.346Z,13.90
2023-04-24T05:45:04.783Z,13.80
2023-04-24T05:47:35.056Z,13.90
2023-04-24T05:50:01.860Z,13.90
2023-04-24T05:52:28.726Z,14.00
2023-04-24T05:54:55.733Z,13.90
2023-04-24T05:57:22.578Z,13.90
2023-04-24T05:59:49.659Z,13.90
2023-04-24T06:02:16.858Z,14.00
2023-04-24T06:04:44.797Z,14.00
2023-04-24T06:07:14.862Z,14.00
2023-04-24T06:09:41.969Z,14.10
2023-04-24T06:12:12.110Z,14.00
2023-04-24T06:14:38.836Z,14.00
2023-04-24T06:17:06.028Z,14.30
2023-04-24T06:19:32.889Z,14.20
2023-04-24T06:21:59.695Z,14.20
2023-04-24T06:24:29.929Z,14.20
2023-04-24T06:26:58.358Z,14.20
2023-04-24T06:29:25.215Z,14.30
2023-04-24T06:31:52.074Z,14.30
2023-04-24T06:34:19.080Z,14.30
2023-04-24T06:36:46.074Z,14.20
2023-04-24T06:39:13.361Z,14.20
2023-04-24T06:41:41.000Z,14.30
2023-04-24T06:44:08.120Z,14.30
2023-04-24T06:46:35.375Z,14.40
2023-04-24T06:49:02.477Z,14.40
2023-04-24T06:51:29.809Z,14.40
2023-04-24T06:53:59.572Z,14.50
2023-04-24T06:56:27.265Z,14.60
2023-04-24T06:58:54.531Z,14.70
2023-04-24T07:01:21.377Z,14.50
2023-04-24T07:03:48.372Z,14.60
2023-04-24T07:06:17.542Z,14.70
2023-04-24T07:08:44.754Z,14.80
2023-04-24T07:11:11.683Z,14.90
2023-04-24T07:13:42.911Z,15.30
2023-04-24T07:16:10.848Z,15.00
2023-04-24T07:18:38.452Z,15.00
2023-04-24T07:21:05.559Z,15.10
2023-04-24T07:23:32.433Z,15.30
2023-04-24T07:25:59.326Z,15.50
2023-04-24T07:28:26.782Z,15.70
2023-04-24T07:30:55.174Z,15.80
2023-04-24T07:33:22.283Z,15.90
2023-04-24T07:35:49.646Z,16.10
2023-04-24T07:38:16.607Z,16.30
2023-04-24T07:40:44.051Z,16.40
2023-04-24T07:43:10.973Z,16.40
2023-04-24T07:45:38.666Z,16.40
2023-04-24T07:48:06.362Z,16.50
2023-04-24T07:50:33.560Z,16.40
2023-04-24T07:53:00.389Z,16.40
2023-04-24T07:55:28.367Z,16.30
2023-04-24T07:57:55.375Z,16.20
2023-04-24T08:00:22.491Z,16.20
2023-04-24T08:02:49.441Z,16.00
2023-04-24T08:05:16.741Z,16.00
2023-04-24T08:07:43.780Z,16.00
2023-04-24T08:10:14.390Z,16.00
2023-04-24T08:12:41.399Z,16.10
2023-04-24T08:15:08.954Z,16.00
2023-04-24T08:17:36.695Z,16.00
2023-04-24T08:20:06.338Z,15.90
2023-04-24T08:22:33.270Z,15.80
2023-04-24T08:25:01.193Z,15.50
2023-04-24T08:27:28.761Z,15.40
2023-04-24T08:29:56.201Z,15.30
2023-04-24T08:32:22.977Z,15.10
2023-04-24T08:34:50.043Z,15.20
2023-04-24T08:37:16.956Z,15.00
2023-04-24T08:39:44.337Z,15.00
2023-04-24T08:42:14.036Z,15.00
2023-04-24T08:44:41.051Z,15.00
2023-04-24T08:47:09.053Z,15.00
2023-04-24T08:49:38.170Z,15.10
2023-04-24T08:52:08.034Z,15.20
2023-04-24T08:54:37.697Z,15.20
2023-04-24T08:57:05.007Z,15.20
2023-04-24T08:59:32.864Z,15.30
2023-04-24T09:02:00.284Z,15.30
2023-04-24T09:04:28.892Z,15.40
2023-04-24T09:06:58.996Z,15.40
2023-04-24T09:09:26.922Z,15.40
2023-04-24T09:11:56.650Z,15.40
2023-04-24T09:14:24.851Z,15.20
2023-04-24T09:16:52.191Z,15.10
2023-04-24T09:19:19.304Z,15.10
2023-04-24T09:21:49.752Z,15.10
2023-04-24T09:24:19.381Z,15.10
2023-04-24T09:26:46.590Z,15.10
2023-04-24T09:29:18.003Z,15.20
2023-04-24T09:31:46.860Z,15.20
2023-04-24T09:34:14.478Z,15.30
2023-04-24T09:36:43.659Z,15.30
2023-04-24T09:39:13.290Z,15.40
2023-04-24T09:41:51.406Z,15.50
2023-04-24T09:44:28.436Z,15.60
2023-04-24T09:46:57.757Z,15.60
2023-04-24T09:49:26.962Z,15.70
2023-04-24T09:52:07.817Z,15.60
2023-04-24T09:54:34.829Z,15.70
2023-04-24T09:57:01.661Z,15.60
2023-04-24T09:59:28.959Z,15.60
2023-04-24T10:01:56.257Z,15.60
2023-04-24T10:04:25.525Z,15.60
2023-04-24T10:06:54.023Z,15.50
2023-04-24T10:09:26.287Z,15.50
2023-04-24T10:11:55.206Z,15.50
2023-04-24T10:14:25.446Z,15.40
2023-04-24T10:16:55.914Z,15.30
2023-04-24T10:19:26.530Z,15.30
2023-04-24T10:21:55.591Z,15.20
2023-04-24T10:24:22.784Z,15.10
2023-04-24T10:26:49.769Z,14.90
2023-04-24T10:29:19.403Z,15.00
2023-04-24T10:31:46.966Z,14.80
2023-04-24T10:34:15.585Z,14.80
2023-04-24T10:36:53.958Z,14.80
2023-04-24T10:39:27.659Z,14.80
2023-04-24T10:41:57.576Z,14.90
2023-04-24T10:44:24.671Z,14.90
2023-04-24T10:46:55.667Z,15.00
2023-04-24T10:49:33.088Z,15.10
2023-04-24T10:52:06.635Z,15.20
2023-04-24T10:54:45.254Z,15.10
2023-04-24T10:57:21.680Z,15.00
2023-04-24T10:59:51.767Z,14.90
2023-04-24T11:02:19.940Z,14.90
2023-04-24T11:04:47.398Z,14.70
2023-04-24T11:07:14.534Z,14.70
2023-04-24T11:09:44.379Z,14.80
2023-04-24T11:12:13.873Z,14.80
2023-04-24T11:14:59.686Z,14.90
2023-04-24T11:17:35.281Z,15.10
2023-04-24T11:20:25.066Z,15.20
2023-04-24T11:22:55.857Z,15.40
2023-04-24T11:25:26.884Z,15.40
2023-04-24T11:28:05.084Z,15.40
2023-04-24T11:30:32.785Z,15.50
2023-04-24T11:33:04.814Z,15.50
2023-04-24T11:35:38.475Z,15.60
2023-04-24T11:40:37.950Z,15.40
2023-04-24T11:43:07.777Z,15.40
2023-04-24T11:45:34.961Z,15.40
2023-04-24T11:48:03.794Z,15.40
2023-04-24T11:50:30.753Z,15.30
2023-04-24T11:52:57.766Z,15.40
2023-04-24T11:55:28.831Z,15.30
2023-04-24T11:57:58.254Z,15.30
2023-04-24T12:00:27.893Z,15.50
2023-04-24T12:03:07.478Z,15.40
2023-04-24T12:05:35.899Z,15.40
2023-04-24T12:08:03.237Z,15.30
2023-04-24T12:10:31.667Z,15.30
2023-04-24T12:12:59.666Z,15.40
2023-04-24T12:15:27.237Z,15.50
2023-04-24T12:17:55.690Z,15.40
2023-04-24T12:20:32.027Z,15.40
2023-04-24T12:23:00.358Z,15.60
2023-04-24T12:25:32.185Z,15.30
2023-04-24T12:28:05.578Z,15.40
2023-04-24T12:30:41.229Z,15.40
2023-04-24T12:33:08.234Z,15.40
2023-04-24T12:35:36.777Z,15.50
2023-04-24T12:38:11.485Z,15.60
2023-04-24T12:40:38.485Z,15.70
2023-04-24T12:43:17.991Z,15.70
2023-04-24T12:45:46.073Z,15.80
2023-04-24T12:48:15.169Z,15.70
2023-04-24T12:50:45.481Z,15.70
2023-04-24T12:53:13.211Z,15.70
2023-04-24T12:55:40.004Z,15.60
2023-04-24T12:58:06.936Z,15.60
2023-04-24T13:00:34.501Z,15.50
2023-04-24T13:03:01.973Z,15.40
2023-04-24T13:05:29.028Z,15.50
2023-04-24T13:07:55.854Z,15.50
2023-04-24T13:10:22.933Z,15.50
2023-04-24T13:12:49.950Z,15.60
2023-04-24T13:15:16.728Z,15.60
2023-04-24T13:17:43.579Z,15.80
2023-04-24T13:20:10.740Z,15.70
2023-04-24T13:22:38.151Z,15.70
2023-04-24T13:25:07.053Z,15.70
2023-04-24T13:27:34.362Z,15.60
2023-04-24T13:30:01.286Z,15.60
2023-04-24T13:32:29.332Z,15.60
2023-04-24T13:34:56.457Z,15.50
2023-04-24T13:37:23.817Z,15.50
2023-04-24T13:39:51.652Z,15.40
2023-04-24T13:42:19.320Z,16.70
2023-04-24T13:44:46.175Z,15.30
2023-04-24T13:47:13.231Z,15.40
2023-04-24T13:49:40.086Z,15.30
2023-04-24T13:52:07.082Z,15.30
2023-04-24T13:54:34.038Z,15.20
2023-04-24T13:57:02.154Z,15.30
2023-04-24T13:59:28.986Z,15.20
2023-04-24T14:01:55.880Z,15.20
2023-04-24T14:04:22.909Z,15.20
2023-04-24T14:06:50.155Z,15.10
2023-04-24T14:09:16.969Z,14.90
2023-04-24T14:11:44.028Z,14.80
2023-04-24T14:14:11.476Z,14.70
2023-04-24T14:16:38.291Z,14.60
2023-04-24T14:19:06.643Z,14.60
2023-04-24T14:21:34.073Z,14.60
2023-04-24T14:24:01.217Z,14.70
2023-04-24T14:26:28.066Z,14.70
2023-04-24T14:29:04.013Z,14.80
2023-04-24T14:31:40.919Z,15.00
2023-04-24T14:34:07.843Z,15.00
2023-04-24T14:36:34.713Z,15.10
2023-04-24T14:39:04.435Z,15.20
2023-04-24T14:41:31.285Z,15.30
2023-04-24T14:43:58.053Z,15.20
2023-04-24T14:46:24.997Z,15.30
2023-04-24T14:48:51.784Z,15.20
2023-04-24T14:51:18.727Z,15.10
2023-04-24T14:53:48.031Z,14.80
2023-04-24T14:56:15.450Z,14.60
2023-04-24T14:58:42.334Z,14.40
2023-04-24T15:01:09.137Z,14.20
2023-04-24T15:03:36.238Z,14.20
2023-04-24T15:06:03.208Z,14.00
2023-04-24T15:08:29.950Z,14.00
2023-04-24T15:10:56.740Z,14.10
2023-04-24T15:13:23.472Z,14.80
2023-04-24T15:15:50.261Z,14.30
2023-04-24T15:18:17.113Z,14.50
2023-04-24T15:20:44.059Z,14.50
2023-04-24T15:23:11.263Z,14.60
2023-04-24T15:25:39.208Z,14.60
2023-04-24T15:28:06.728Z,14.70
2023-04-24T15:30:33.568Z,14.80
2023-04-24T15:33:01.884Z,15.00
2023-04-24T15:35:29.196Z,15.00
2023-04-24T15:37:56.259Z,14.90
2023-04-24T15:40:23.286Z,15.20
2023-04-24T15:42:50.050Z,15.10
2023-04-24T15:45:16.980Z,15.00
2023-04-24T15:47:47.641Z,15.10
2023-04-24T15:50:16.893Z,15.20
2023-04-24T15:52:44.431Z,15.10
2023-04-24T15:55:11.409Z,15.30
2023-04-24T15:57:38.296Z,15.10
2023-04-24T16:00:10.701Z,15.10
2023-04-24T16:02:40.349Z,15.10
2023-04-24T16:05:07.831Z,15.10
2023-04-24T16:07:35.787Z,15.10
2023-04-24T16:10:02.853Z,15.10
2023-04-24T16:12:30.167Z,15.10
2023-04-24T16:14:56.925Z,15.20
2023-04-24T16:17:24.066Z,15.20
2023-04-24T16:19:50.825Z,15.20
2023-04-24T16:22:17.994Z,15.20
2023-04-24T16:24:47.123Z,15.30
2023-04-24T16:27:15.017Z,15.20
2023-04-24T16:29:41.940Z,15.20
2023-04-24T16:32:10.632Z,15.20
2023-04-24T16:34:37.589Z,15.20
2023-04-24T16:37:05.463Z,15.10
2023-04-24T16:39:32.433Z,15.20
2023-04-24T16:42:00.355Z,15.20
2023-04-24T16:44:28.137Z,15.20
2023-04-24T16:46:55.029Z,15.20
2023-04-24T16:49:23.712Z,15.20
2023-04-24T16:51:50.947Z,15.20
2023-04-24T16:54:17.766Z,15.20
2023-04-24T16:56:44.497Z,15.20
2023-04-24T16:59:11.359Z,15.20
2023-04-24T17:01:38.416Z,15.20
2023-04-24T17:04:05.466Z,15.20
2023-04-24T17:06:32.395Z,15.30
2023-04-24T17:09:00.477Z,15.30
2023-04-24T17:11:29.870Z,15.60
2023-04-24T17:13:59.891Z,15.40
2023-04-24T17:16:27.068Z,15.40
2023-04-24T17:18:54.317Z,15.40
2023-04-24T17:21:21.265Z,16.00
2023-04-24T17:23:47.997Z,15.30
2023-04-24T17:26:14.740Z,15.50
2023-04-24T17:28:41.806Z,15.30
2023-04-24T17:31:08.513Z,15.30
2023-04-24T17:33:35.304Z,15.30
2023-04-24T17:36:02.129Z,15.30
2023-04-24T17:38:29.747Z,15.30
2023-04-24T17:40:56.918Z,15.20
2023-04-24T17:43:24.280Z,15.10
2023-04-24T17:45:53.253Z,15.10
2023-04-24T17:48:20.200Z,15.20
2023-04-24T17:50:46.930Z,15.20
2023-04-24T17:53:13.795Z,15.20
2023-04-24T17:55:43.601Z,15.20
2023-04-24T17:58:10.717Z,15.10
2023-04-24T18:00:37.878Z,15.00
2023-04-24T18:03:05.850Z,15.10
2023-04-24T18:05:38.145Z,15.20
2023-04-24T18:08:05.637Z,15.00
2023-04-24T18:10:33.700Z,15.00
2023-04-24T18:13:01.568Z,15.00
2023-04-24T18:15:29.664Z,15.10
2023-04-24T18:17:56.567Z,15.10
2023-04-24T18:20:23.409Z,15.00
2023-04-24T18:22:50.218Z,15.00
2023-04-24T18:25:17.799Z,14.90
2023-04-24T18:27:44.591Z,15.00
2023-04-24T18:30:14.488Z,15.00
2023-04-24T18:32:42.210Z,15.00
2023-04-24T18:35:09.960Z,14.90
2023-04-24T18:37:36.710Z,14.90
2023-04-24T18:40:03.759Z,14.80
2023-04-24T18:42:30.711Z,14.80
2023-04-24T18:45:01.850Z,14.90
2023-04-24T18:47:29.120Z,14.90
2023-04-24T18:49:56.081Z,14.90
2023-04-24T18:52:24.286Z,14.90
2023-04-24T18:54:51.563Z,14.90
2023-04-24T18:57:18.454Z,14.90
2023-04-24T18:59:45.317Z,14.80
2023-04-24T19:02:12.250Z,14.70
2023-04-24T19:04:39.689Z,14.70
2023-04-24T19:07:07.201Z,14.70
2023-04-24T19:09:34.196Z,14.70
2023-04-24T19:12:01.915Z,14.70
2023-04-24T19:14:28.989Z,14.80
2023-04-24T19:16:55.834Z,14.80
2023-04-24T19:19:23.830Z,14.70
2023-04-24T19:21:50.710Z,14.60
2023-04-24T19:24:19.228Z,14.70
2023-04-24T19:26:46.304Z,14.60
2023-04-24T19:29:13.195Z,14.50
2023-04-24T19:31:40.161Z,14.50
2023-04-24T19:34:07.030Z,14.50
2023-04-24T19:36:34.655Z,14.50
2023-04-24T19:39:01.730Z,14.60
2023-04-24T19:41:28.550Z,14.50
2023-04-24T19:43:55.596Z,14.60
2023-04-24T19:46:22.736Z,14.60
2023-04-24T19:48:49.888Z,14.50
2023-04-24T19:51:16.855Z,14.50
2023-04-24T19:53:43.892Z,14.50
2023-04-24T19:56:10.876Z,14.60
2023-04-24T19:58:37.616Z,14.50
2023-04-24T20:01:06.000Z,14.40
2023-04-24T20:03:34.294Z,14.30
2023-04-24T20:06:01.886Z,14.30
2023-04-24T20:08:28.756Z,14.30
2023-04-24T20:10:57.863Z,14.30
2023-04-24T20:13:28.141Z,14.30
2023-04-24T20:15:55.180Z,14.30
2023-04-24T20:18:23.373Z,14.30
2023-04-24T20:20:54.130Z,14.30
2023-04-24T20:23:20.868Z,14.30
2023-04-24T20:25:47.635Z,14.20
2023-04-24T20:28:14.909Z,14.20
2023-04-24T20:30:41.756Z,14.10
2023-04-24T20:33:08.630Z,14.40
2023-04-24T20:35:35.830Z,14.10
2023-04-24T20:38:03.218Z,14.00
2023-04-24T20:40:31.707Z,14.00
2023-04-24T20:42:58.711Z,14.10
2023-04-24T20:45:25.855Z,14.00
2023-04-24T20:47:52.736Z,13.90
2023-04-24T20:50:20.495Z,13.90
2023-04-24T20:52:47.439Z,14.10
2023-04-24T20:55:15.308Z,14.00
2023-04-24T20:57:42.261Z,13.90
2023-04-24T21:00:11.124Z,13.90
2023-04-24T21:02:38.122Z,13.90
2023-04-24T21:05:05.364Z,13.80
2023-04-24T21:07:35.597Z,13.70
2023-04-24T21:10:02.499Z,13.80
2023-04-24T21:12:29.221Z,13.80
2023-04-24T21:14:56.066Z,13.80
2023-04-24T21:17:22.896Z,13.80
2023-04-24T21:19:49.769Z,13.70
2023-04-24T21:22:16.527Z,13.70
2023-04-24T21:24:43.594Z,13.70
2023-04-24T21:27:10.514Z,13.80
2023-04-24T21:29:37.575Z,13.80
2023-04-24T21:32:04.743Z,14.00
2023-04-24T21:34:31.830Z,14.00
2023-04-24T21:36:58.548Z,13.90
2023-04-24T21:39:25.364Z,13.80
2023-04-24T21:41:52.197Z,13.90
2023-04-24T21:44:19.049Z,13.80
2023-04-24T21:46:46.042Z,13.80
2023-04-24T21:49:12.877Z,13.80
2023-04-24T21:51:39.648Z,13.90
2023-04-24T21:54:06.427Z,13.80
2023-04-24T21:56:33.267Z,13.90
2023-04-24T21:59:00.070Z,13.90
2023-04-24T22:01:27.035Z,13.80
2023-04-24T22:03:54.180Z,13.90
2023-04-24T22:06:21.351Z,13.90
2023-04-24T22:08:48.268Z,14.70
2023-04-24T22:11:25.782Z,14.70
2023-04-24T22:13:54.954Z,13.80
2023-04-24T22:16:24.292Z,13.80
2023-04-24T22:18:53.684Z,13.80
2023-04-24T22:21:21.622Z,13.90
2023-04-24T22:23:48.811Z,13.80
2023-04-24T22:26:15.912Z,13.70
2023-04-24T22:28:42.773Z,13.80
2023-04-24T22:31:09.851Z,13.70
2023-04-24T22:33:36.638Z,13.90
2023-04-24T22:36:03.654Z,13.80
2023-04-24T22:38:30.527Z,13.80
2023-04-24T22:40:57.342Z,13.80
2023-04-24T22:43:24.489Z,13.70
2023-04-24T22:45:51.812Z,13.70
2023-04-24T22:48:18.598Z,13.70
2023-04-24T22:50:45.448Z,13.70
2023-04-24T22:53:12.180Z,13.80
2023-04-24T22:55:39.057Z,13.80
2023-04-24T22:58:06.664Z,13.60
2023-04-24T23:00:33.522Z,13.60
2023-04-24T23:03:00.380Z,13.50
2023-04-24T23:05:28.086Z,13.50
2023-04-24T23:07:55.126Z,13.40
2023-04-24T23:10:21.952Z,13.50
2023-04-24T23:12:49.008Z,13.70
2023-04-24T23:15:16.055Z,13.50
2023-04-24T23:17:43.586Z,13.60
2023-04-24T23:20:14.282Z,13.40
2023-04-24T23:22:41.814Z,13.30
2023-04-24T23:25:09.168Z,13.40
2023-04-24T23:27:35.876Z,13.30
2023-04-24T23:30:03.930Z,13.40
2023-04-24T23:32:31.265Z,13.40
2023-04-24T23:34:58.145Z,13.40
2023-04-24T23:37:25.102Z,13.50
2023-04-24T23:39:51.940Z,13.60
2023-04-24T23:42:18.698Z,13.50
2023-04-24T23:44:45.639Z,13.30
2023-04-24T23:47:12.353Z,13.40
2023-04-24T23:49:39.235Z,13.40
2023-04-24T23:52:06.075Z,13.40
2023-04-24T23:54:32.920Z,13.40
2023-04-24T23:56:59.702Z,13.30
2023-04-24T23:59:26.489Z,13.40
